Blountstown, Florida
Current Conditions -  °F | °C
As of 3:53 AM on Friday 24 Oct 2014 (Local Time) from KMAI Reporting Station
Clear Clear  
Wind Chill: 52°   Ceiling: Unl
Heat Index: 52°   Visibility: 10mi
Dew Point: 52°   Wind: 3mph
Humidity: 100%   Direction: 270°W
Pressure: 30.02"   Gusts: NA
Location:  30.44°N, 85.05°W
Report Text: KMAI 240853Z AUTO 27003KT 10SM CLR 11/11 A3002 RMK AO2 SLP164 T01110111 58005 $
Loading
Personal Weather Stations






























Interactive Weather Map New forecast layout! Learn more

10-Day Weather Forecast

Advertisements
Track Severe Weather on mobile